Airport ID:KVUF
Update Time (UTC):03/02/2023 00:26
Wind Speed (Knots):3
Wind Direction (Magnetic):30
Temperature (°C):7
Dew Point (°C):0
Humidity (%):60
Altimeter (inHg):30.38
Density Altitude (Feet):
Visibility:10+
Clouds (Hundreds of feet):CLR
Present Weather:
METAR:METAR KVUF 030025Z AUTO 03003KT 10SM CLR 07/M00 A3037 RMK A01

The data displayed is for advisory purposes only and is not to be used for flight planning or operations.